Time;durP1;ratioP1;P1;durP2;ratioP2;P2;SDS_P1;SDS_P2;PMS_P1;PMS_P2;Temp;Humidity;BMP_temperature;BMP_pressure;BME280_temperature;BME280_humidity;BME280_pressure;Samples;Min_cycle;Max_cycle;Signal;HPM_P1;HPM_P2
2022/11/03 00:00:29;;;;;;;5.47;4.67;;;7.10;99.90;;;;;;5101964;28;20391;-80
2022/11/03 00:03:15;;;;;;;9.97;6.40;;;6.90;99.90;;;;;;5102863;28;20727;-81
2022/11/03 00:06:03;;;;;;;11.43;6.27;;;7.00;99.90;;;;;;5117892;28;20459;-79
2022/11/03 00:08:47;;;;;;;11.20;5.80;;;6.70;99.90;;;;;;5117987;28;20401;-80
2022/11/03 00:11:33;;;;;;;19.60;6.53;;;6.70;99.90;;;;;;5117624;28;20403;-79
2022/11/03 00:14:18;;;;;;;7.47;5.60;;;6.70;99.90;;;;;;5116324;28;20403;-80
2022/11/03 00:17:02;;;;;;;7.80;5.70;;;6.80;99.90;;;;;;5086269;28;20402;-80
2022/11/03 00:19:46;;;;;;;10.80;5.90;;;6.80;99.90;;;;;;5101303;28;20380;-80
2022/11/03 00:22:32;;;;;;;12.53;6.60;;;6.70;99.90;;;;;;5100631;28;20452;-81
2022/11/03 00:25:16;;;;;;;7.37;6.00;;;6.70;99.90;;;;;;5101748;28;20454;-80
2022/11/03 00:28:00;;;;;;;18.80;6.63;;;6.70;99.90;;;;;;5101309;28;20430;-80
2022/11/03 00:30:44;;;;;;;9.20;6.40;;;6.70;99.90;;;;;;5100820;28;20362;-80
2022/11/03 00:33:31;;;;;;;8.93;5.60;;;6.70;99.90;;;;;;5100943;28;20377;-80
2022/11/03 00:36:18;;;;;;;7.47;6.67;;;6.60;99.90;;;;;;5100674;28;20482;-80
2022/11/03 00:39:03;;;;;;;11.13;5.17;;;6.50;99.90;;;;;;5100912;28;20462;-80
2022/11/03 00:41:49;;;;;;;7.77;6.00;;;6.50;99.90;;;;;;5099610;28;20462;-80
2022/11/03 00:44:33;;;;;;;7.97;5.60;;;6.50;99.90;;;;;;5084940;28;20436;-80
2022/11/03 00:47:17;;;;;;;6.50;5.90;;;6.40;99.90;;;;;;5101210;28;20403;-80
2022/11/03 00:50:01;;;;;;;15.00;7.13;;;6.50;99.90;;;;;;5100874;28;20434;-80
2022/11/03 00:52:46;;;;;;;10.53;5.67;;;6.50;99.90;;;;;;5100719;28;20423;-80
2022/11/03 00:55:30;;;;;;;12.53;6.63;;;6.50;99.90;;;;;;5099988;28;20413;-79
2022/11/03 00:58:14;;;;;;;8.33;5.70;;;6.50;99.90;;;;;;5099996;28;20988;-80
2022/11/03 01:01:04;;;;;;;7.23;4.83;;;6.60;99.90;;;;;;5085043;28;20436;-80
2022/11/03 01:06:50;;;;;;;9.20;5.57;;;7.00;99.90;;;;;;5100752;28;20377;-80
2022/11/03 01:09:37;;;;;;;7.03;6.10;;;7.00;99.90;;;;;;5100589;28;20757;-81
2022/11/03 01:12:22;;;;;;;15.33;6.87;;;6.80;99.90;;;;;;5100130;28;20362;-80
2022/11/03 01:15:06;;;;;;;7.40;5.33;;;6.90;99.90;;;;;;5101090;28;20416;-81
2022/11/03 01:17:50;;;;;;;7.47;6.77;;;6.90;99.90;;;;;;5085897;28;20513;-81
2022/11/03 01:20:34;;;;;;;6.80;6.00;;;6.90;99.90;;;;;;5100532;28;20363;-81
2022/11/03 01:23:18;;;;;;;16.33;6.50;;;6.90;99.90;;;;;;5101228;28;20367;-81
2022/11/03 01:26:04;;;;;;;11.57;6.00;;;6.80;99.90;;;;;;5085190;28;20371;-81
2022/11/03 01:28:49;;;;;;;5.30;4.90;;;6.80;99.90;;;;;;5099610;28;20409;-81
2022/11/03 01:31:33;;;;;;;5.90;5.30;;;6.90;99.90;;;;;;5098979;28;20359;-80
2022/11/03 01:34:19;;;;;;;6.80;6.07;;;6.70;99.90;;;;;;5100134;28;20359;-80
2022/11/03 01:37:04;;;;;;;7.27;6.27;;;6.50;99.90;;;;;;5098911;28;20418;-80
2022/11/03 01:39:48;;;;;;;7.43;4.87;;;6.40;99.90;;;;;;5098700;28;20398;-80
2022/11/03 01:42:32;;;;;;;13.43;5.93;;;6.20;99.90;;;;;;5098598;28;20827;-80
2022/11/03 01:45:17;;;;;;;7.70;5.50;;;6.10;99.90;;;;;;5098859;28;20382;-80
2022/11/03 01:48:01;;;;;;;7.63;6.03;;;6.10;99.90;;;;;;5099833;28;20899;-81
2022/11/03 01:50:47;;;;;;;7.30;4.90;;;6.20;99.90;;;;;;5085134;28;20411;-80
2022/11/03 01:53:33;;;;;;;8.73;5.47;;;6.20;99.90;;;;;;5100985;28;20355;-81
2022/11/03 01:56:20;;;;;;;4.33;3.93;;;6.00;99.90;;;;;;5101136;28;20422;-81
2022/11/03 01:59:04;;;;;;;4.87;4.47;;;6.00;99.90;;;;;;5085548;28;20382;-80
2022/11/03 02:01:48;;;;;;;6.30;4.20;;;6.00;99.90;;;;;;5114604;28;20455;-80
2022/11/03 02:04:33;;;;;;;8.97;4.77;;;5.90;99.90;;;;;;5115963;28;20395;-80
2022/11/03 02:07:27;;;;;;;4.13;3.37;;;5.90;99.90;;;;;;5115698;28;20372;-80
2022/11/03 02:10:11;;;;;;;7.33;6.17;;;5.90;99.90;;;;;;5116820;28;20429;-79
2022/11/03 02:12:56;;;;;;;12.30;6.17;;;6.00;99.90;;;;;;5101711;28;20387;-79
2022/11/03 02:15:41;;;;;;;12.80;7.37;;;6.20;99.90;;;;;;5116934;28;20384;-80
2022/11/03 02:18:32;;;;;;;9.40;5.07;;;6.30;99.90;;;;;;5112389;28;20454;-80
2022/11/03 02:21:37;;;;;;;9.17;6.47;;;6.40;99.90;;;;;;5102853;28;20438;-80
2022/11/03 02:24:44;;;;;;;14.13;7.20;;;6.20;99.90;;;;;;5101818;28;20367;-80
2022/11/03 02:27:28;;;;;;;7.33;5.30;;;6.50;99.90;;;;;;5100200;28;20383;-80
2022/11/03 02:30:13;;;;;;;6.60;5.07;;;6.40;99.90;;;;;;5115920;28;20394;-79
2022/11/03 02:33:11;;;;;;;6.63;5.70;;;6.10;99.90;;;;;;5118198;28;20382;-78
2022/11/03 02:36:05;;;;;;;8.70;4.80;;;6.20;99.90;;;;;;5115092;28;20874;-80
2022/11/03 02:38:57;;;;;;;10.77;4.97;;;6.00;99.90;;;;;;5112788;28;20412;-80
2022/11/03 02:41:43;;;;;;;6.70;4.50;;;6.00;99.90;;;;;;5117499;28;20504;-79
2022/11/03 02:44:28;;;;;;;6.83;4.63;;;5.80;99.90;;;;;;5118150;28;20430;-78
2022/11/03 02:47:13;;;;;;;5.23;4.60;;;5.80;99.90;;;;;;5117922;28;20375;-78
2022/11/03 02:49:58;;;;;;;8.73;5.00;;;5.60;99.90;;;;;;5118106;28;20362;-79
2022/11/03 02:52:45;;;;;;;6.83;5.33;;;5.60;99.90;;;;;;5117860;28;20358;-80
2022/11/03 02:55:39;;;;;;;5.63;3.50;;;5.60;99.90;;;;;;5101780;28;20424;-79
2022/11/03 02:58:39;;;;;;;20.80;6.57;;;5.60;99.90;;;;;;5098757;28;20423;-79
2022/11/03 03:01:35;;;;;;;5.97;5.23;;;5.60;99.90;;;;;;5067816;28;21045;-80
2022/11/03 03:04:27;;;;;;;8.30;4.43;;;5.60;99.90;;;;;;5098960;28;20950;-79
2022/11/03 03:07:18;;;;;;;7.43;4.40;;;5.60;99.90;;;;;;5098693;28;20355;-78
2022/11/03 03:10:09;;;;;;;4.87;4.37;;;5.70;99.90;;;;;;5098312;28;20403;-79
2022/11/03 03:12:56;;;;;;;6.27;5.33;;;5.70;99.90;;;;;;5097960;28;20366;-80
2022/11/03 03:16:04;;;;;;;5.87;4.47;;;5.50;99.90;;;;;;5097849;28;20355;-77
2022/11/03 03:19:01;;;;;;;6.20;4.87;;;5.40;99.90;;;;;;5097752;28;20386;-79
2022/11/03 03:21:49;;;;;;;9.53;5.10;;;5.40;99.90;;;;;;5100227;28;20977;-78
2022/11/03 03:24:44;;;;;;;16.63;4.93;;;5.60;99.90;;;;;;5101507;28;20403;-79
2022/11/03 03:27:32;;;;;;;5.53;4.90;;;5.70;99.90;;;;;;5101863;28;20443;-79
2022/11/03 03:30:17;;;;;;;5.17;4.77;;;5.60;99.90;;;;;;5101787;28;20394;-78
2022/11/03 03:33:04;;;;;;;9.23;6.93;;;5.70;99.90;;;;;;5086524;28;20456;-78
2022/11/03 03:35:51;;;;;;;7.00;4.93;;;5.70;99.90;;;;;;5100677;28;20392;-79
2022/11/03 03:38:42;;;;;;;6.50;4.53;;;5.80;99.90;;;;;;5100062;28;20371;-79
2022/11/03 03:41:31;;;;;;;10.40;4.87;;;5.60;99.90;;;;;;5101552;28;20447;-80
2022/11/03 03:44:16;;;;;;;7.17;4.70;;;5.60;99.90;;;;;;5101790;28;20751;-80
2022/11/03 03:47:06;;;;;;;5.50;4.97;;;5.60;99.90;;;;;;5101589;28;20405;-79
2022/11/03 03:49:50;;;;;;;5.60;5.10;;;5.60;99.90;;;;;;5086432;28;20378;-80
2022/11/03 03:52:36;;;;;;;7.10;5.17;;;5.70;99.90;;;;;;5101910;28;20948;-80
2022/11/03 03:55:23;;;;;;;5.60;5.10;;;5.70;99.90;;;;;;5102418;28;20367;-78
2022/11/03 03:58:11;;;;;;;10.33;5.63;;;5.80;99.90;;;;;;5102031;28;20492;-80
2022/11/03 04:00:56;;;;;;;6.63;5.20;;;6.00;99.90;;;;;;5101348;28;20393;-79
2022/11/03 04:03:39;;;;;;;7.50;5.00;;;6.20;99.90;;;;;;5100968;28;20380;-81
2022/11/03 04:06:24;;;;;;;9.57;4.77;;;6.40;99.90;;;;;;5101213;28;20370;-79
2022/11/03 04:09:08;;;;;;;8.83;5.40;;;6.60;99.90;;;;;;5100718;28;20442;-80
2022/11/03 04:23:47;;;;;;;4.43;3.83;;;6.70;99.90;;;;;;5100772;28;20384;-78
2022/11/03 04:26:31;;;;;;;5.23;4.70;;;6.50;99.90;;;;;;5101234;28;20392;-79
2022/11/03 04:29:16;;;;;;;8.03;4.80;;;6.10;99.90;;;;;;5101049;28;20803;-79
2022/11/03 04:32:00;;;;;;;7.17;4.47;;;6.00;99.90;;;;;;5084672;28;20748;-79
2022/11/03 04:34:46;;;;;;;6.50;4.70;;;5.90;99.90;;;;;;5100932;28;20396;-79
2022/11/03 04:37:30;;;;;;;6.83;4.90;;;5.70;99.90;;;;;;5100877;28;20422;-79
2022/11/03 04:40:16;;;;;;;8.40;4.50;;;5.50;99.90;;;;;;5100366;28;20401;-79
2022/11/03 04:43:03;;;;;;;5.47;3.70;;;5.40;99.90;;;;;;5100147;28;20418;-79
2022/11/03 04:45:48;;;;;;;4.67;4.27;;;5.30;99.90;;;;;;5096295;28;20355;-80
2022/11/03 04:48:33;;;;;;;5.50;4.83;;;5.50;99.90;;;;;;5079573;28;20501;-79
2022/11/03 04:51:21;;;;;;;10.10;5.27;;;5.50;99.90;;;;;;5080161;28;20723;-80
2022/11/03 04:54:13;;;;;;;4.27;3.43;;;5.50;99.90;;;;;;5080543;28;20423;-80
2022/11/03 04:56:58;;;;;;;8.20;5.17;;;5.40;99.90;;;;;;5079105;28;20431;-79
2022/11/03 04:59:46;;;;;;;6.73;4.87;;;5.40;99.90;;;;;;5079750;28;20399;-80
2022/11/03 05:02:30;;;;;;;5.07;4.33;;;5.50;99.90;;;;;;5079717;28;21091;-80
2022/11/03 05:05:18;;;;;;;5.50;3.60;;;5.30;99.90;;;;;;5080182;28;20447;-80
2022/11/03 05:08:04;;;;;;;7.80;5.17;;;5.30;99.90;;;;;;5079963;28;20356;-79
2022/11/03 05:10:49;;;;;;;5.67;4.90;;;5.10;99.90;;;;;;5080658;28;20392;-78
2022/11/03 05:13:33;;;;;;;4.67;4.30;;;5.10;99.90;;;;;;5079182;28;20363;-78
2022/11/03 05:16:17;;;;;;;3.53;3.23;;;5.00;99.90;;;;;;5079518;28;20393;-78
2022/11/03 05:19:02;;;;;;;10.13;4.80;;;5.10;99.90;;;;;;5080344;28;20486;-79
2022/11/03 05:21:49;;;;;;;7.33;3.90;;;5.20;99.90;;;;;;5079384;28;20427;-79
2022/11/03 05:24:34;;;;;;;12.10;5.00;;;5.20;99.90;;;;;;5079389;28;20368;-79
2022/11/03 05:27:20;;;;;;;9.60;4.60;;;5.20;99.90;;;;;;5079634;28;20706;-79
2022/11/03 05:30:12;;;;;;;5.30;4.80;;;5.20;99.90;;;;;;5079883;28;20513;-79
2022/11/03 05:32:57;;;;;;;5.30;4.90;;;5.20;99.90;;;;;;5092608;28;20387;-79
2022/11/03 05:35:42;;;;;;;7.10;4.97;;;5.40;99.90;;;;;;5094121;28;20420;-80
2022/11/03 05:38:31;;;;;;;7.03;5.63;;;5.50;99.90;;;;;;5099057;28;20463;-82
2022/11/03 05:41:22;;;;;;;4.80;4.37;;;5.50;99.90;;;;;;5100420;28;20482;-80
2022/11/03 05:44:31;;;;;;;4.73;4.00;;;5.50;99.90;;;;;;5098427;28;20381;-79
2022/11/03 05:47:21;;;;;;;6.03;4.63;;;5.40;99.90;;;;;;5101487;28;20534;-79
2022/11/03 05:50:26;;;;;;;5.70;5.10;;;5.30;99.90;;;;;;5101173;28;20367;-79
2022/11/03 05:53:27;;;;;;;4.53;4.23;;;5.40;99.90;;;;;;5099807;28;20378;-79
2022/11/03 05:56:18;;;;;;;4.13;3.73;;;5.40;99.90;;;;;;5099067;28;20397;-80
2022/11/03 05:59:04;;;;;;;7.30;3.30;;;5.40;99.90;;;;;;5099183;28;20392;-80
2022/11/03 06:01:49;;;;;;;7.03;3.50;;;5.40;99.90;;;;;;5095201;28;21039;-79
2022/11/03 06:04:39;;;;;;;4.33;3.83;;;5.40;99.90;;;;;;5046217;28;20846;-80
2022/11/03 06:07:26;;;;;;;5.30;4.60;;;5.40;99.90;;;;;;5078265;28;20861;-79
2022/11/03 06:10:24;;;;;;;4.33;4.00;;;5.20;99.90;;;;;;5078608;28;20377;-79
2022/11/03 06:13:15;;;;;;;5.23;3.60;;;5.10;99.90;;;;;;5079000;28;20445;-80
2022/11/03 06:16:05;;;;;;;9.50;3.87;;;5.20;99.90;;;;;;5078697;28;20364;-79
2022/11/03 06:18:49;;;;;;;8.20;3.93;;;5.10;99.90;;;;;;5075437;28;20415;-80
2022/11/03 06:21:34;;;;;;;6.17;4.80;;;5.00;99.90;;;;;;5084370;28;20957;-80
2022/11/03 06:24:22;;;;;;;4.10;3.57;;;5.00;99.90;;;;;;5077125;28;20389;-80
2022/11/03 06:27:18;;;;;;;7.03;5.53;;;4.90;99.90;;;;;;5074709;28;20446;-79
2022/11/03 06:30:24;;;;;;;8.07;5.80;;;4.80;99.90;;;;;;5058798;28;20771;-80
2022/11/03 06:33:32;;;;;;;4.93;3.83;;;4.90;99.90;;;;;;5065066;28;20514;-80
2022/11/03 06:36:20;;;;;;;5.80;3.27;;;5.00;99.90;;;;;;5078565;28;20367;-80
2022/11/03 06:39:20;;;;;;;5.00;3.60;;;5.10;99.90;;;;;;5094418;28;20426;-82
2022/11/03 06:42:15;;;;;;;7.10;5.23;;;5.10;99.90;;;;;;5090975;28;20714;-80
2022/11/03 06:45:19;;;;;;;4.07;3.77;;;5.40;99.90;;;;;;5096407;28;20452;-79
2022/11/03 06:48:07;;;;;;;5.33;4.83;;;5.60;99.90;;;;;;5072855;28;20732;-79
2022/11/03 06:50:52;;;;;;;3.67;3.40;;;5.80;99.90;;;;;;5089573;28;20390;-79
2022/11/03 06:53:36;;;;;;;5.07;4.67;;;5.80;99.90;;;;;;5088821;28;20398;-81
2022/11/03 06:56:23;;;;;;;4.90;4.20;;;5.80;99.90;;;;;;5089169;28;20507;-80
2022/11/03 06:59:13;;;;;;;6.40;3.97;;;5.80;99.90;;;;;;5094280;28;20378;-80
2022/11/03 07:01:57;;;;;;;5.53;4.00;;;5.80;99.90;;;;;;5091953;28;20466;-80
2022/11/03 07:04:41;;;;;;;7.10;4.57;;;5.70;99.90;;;;;;5089847;28;21018;-79
2022/11/03 07:07:25;;;;;;;5.57;4.70;;;5.60;99.90;;;;;;5081420;28;20402;-79
2022/11/03 07:10:10;;;;;;;5.00;4.20;;;5.70;99.90;;;;;;5094622;28;20409;-78
2022/11/03 07:12:55;;;;;;;5.97;4.67;;;5.60;99.90;;;;;;5094843;28;20419;-79
2022/11/03 07:15:40;;;;;;;14.27;5.47;;;5.60;99.90;;;;;;5089879;28;20484;-80
2022/11/03 07:18:33;;;;;;;4.50;4.13;;;5.60;99.90;;;;;;5092341;28;20414;-79
2022/11/03 07:21:31;;;;;;;19.37;4.50;;;5.70;99.90;;;;;;5082955;28;20459;-80
2022/11/03 07:24:23;;;;;;;5.47;3.90;;;5.90;99.90;;;;;;5079255;28;20832;-80
2022/11/03 07:27:30;;;;;;;7.13;4.13;;;6.00;99.90;;;;;;5092858;28;20479;-82
2022/11/03 07:30:21;;;;;;;3.67;3.23;;;6.20;99.90;;;;;;5096805;28;21317;-81
2022/11/03 07:33:15;;;;;;;9.37;4.10;;;6.20;99.90;;;;;;5096389;28;20408;-80
2022/11/03 07:36:00;;;;;;;7.57;4.40;;;6.20;99.90;;;;;;5090019;28;20395;-81
2022/11/03 07:38:46;;;;;;;10.33;4.10;;;6.10;99.90;;;;;;5073595;28;20487;-81
2022/11/03 07:41:32;;;;;;;9.00;4.53;;;6.20;99.90;;;;;;5071249;28;20458;-82
2022/11/03 07:44:20;;;;;;;6.07;5.17;;;6.50;99.90;;;;;;5082103;28;20433;-81
2022/11/03 07:47:13;;;;;;;5.50;4.07;;;6.70;99.90;;;;;;5086798;28;20419;-80
2022/11/03 07:49:57;;;;;;;5.57;4.07;;;7.00;99.90;;;;;;5086757;28;20861;-81
2022/11/03 07:52:42;;;;;;;12.40;4.30;;;7.30;99.90;;;;;;5079761;28;20467;-82
2022/11/03 07:55:27;;;;;;;6.97;3.90;;;6.90;99.90;;;;;;5068463;28;20456;-81
2022/11/03 07:58:41;;;;;;;6.80;4.90;;;6.90;99.90;;;;;;5072942;28;20419;-81
2022/11/03 08:01:30;;;;;;;4.20;3.80;;;7.20;99.90;;;;;;5069319;28;20460;-82
2022/11/03 08:04:22;;;;;;;8.70;5.70;;;7.70;99.90;;;;;;5058538;28;20399;-82
2022/11/03 08:07:06;;;;;;;5.87;4.83;;;7.80;99.90;;;;;;5068013;28;20456;-81
2022/11/03 08:09:51;;;;;;;10.67;4.40;;;7.80;99.90;;;;;;5049704;28;20476;-81
2022/11/03 08:12:35;;;;;;;7.47;5.30;;;8.00;99.90;;;;;;5065733;28;20536;-81
2022/11/03 08:15:19;;;;;;;9.20;4.40;;;8.20;99.90;;;;;;5065623;28;20443;-81
2022/11/03 08:18:04;;;;;;;11.93;5.90;;;8.40;99.90;;;;;;5064374;28;20430;-80
2022/11/03 08:20:49;;;;;;;10.00;5.87;;;8.80;99.90;;;;;;5064492;28;20410;-80
2022/11/03 08:23:33;;;;;;;5.20;4.70;;;8.90;99.90;;;;;;5077678;28;20464;-81
2022/11/03 08:26:17;;;;;;;10.23;5.40;;;9.20;99.90;;;;;;5075413;28;20475;-79
2022/11/03 08:29:01;;;;;;;12.90;6.70;;;9.50;99.90;;;;;;5074271;28;20952;-79
2022/11/03 08:31:47;;;;;;;8.10;6.13;;;9.90;99.90;;;;;;5074394;28;20459;-78
2022/11/03 08:34:32;;;;;;;8.20;5.70;;;10.40;99.90;;;;;;5058243;28;20794;-80
2022/11/03 08:37:16;;;;;;;10.90;6.50;;;10.90;99.90;;;;;;5080196;28;20452;-81
2022/11/03 08:40:01;;;;;;;6.60;5.60;;;11.10;99.90;;;;;;5094197;28;20801;-80
2022/11/03 08:42:45;;;;;;;11.30;6.77;;;11.40;99.90;;;;;;5089120;28;20793;-81
2022/11/03 08:45:29;;;;;;;10.17;6.20;;;11.50;99.90;;;;;;5091649;28;20424;-81
2022/11/03 08:48:13;;;;;;;12.37;7.40;;;11.60;99.90;;;;;;5094142;28;20450;-80
2022/11/03 08:50:58;;;;;;;13.23;6.70;;;11.90;99.90;;;;;;5084760;28;20432;-81
2022/11/03 08:53:42;;;;;;;10.80;7.10;;;11.90;99.90;;;;;;5087438;28;20390;-82
2022/11/03 08:56:27;;;;;;;9.33;6.47;;;12.10;99.90;;;;;;5091903;28;20454;-82
2022/11/03 08:59:11;;;;;;;7.10;5.63;;;12.10;99.90;;;;;;5090384;28;20490;-81
2022/11/03 09:01:56;;;;;;;10.03;6.53;;;11.70;99.90;;;;;;5090677;28;20850;-78
2022/11/03 09:04:40;;;;;;;10.30;6.70;;;11.80;99.90;;;;;;5087256;28;21019;-80
2022/11/03 09:07:25;;;;;;;11.93;6.90;;;12.10;99.90;;;;;;5078588;28;20432;-81
2022/11/03 09:10:10;;;;;;;10.03;6.77;;;13.10;99.90;;;;;;5072850;28;20431;-80
2022/11/03 09:12:54;;;;;;;15.53;7.03;;;13.20;99.90;;;;;;5082738;28;20518;-81
2022/11/03 09:15:38;;;;;;;21.10;6.23;;;13.20;99.90;;;;;;5084396;28;20906;-80
2022/11/03 09:18:23;;;;;;;10.47;5.60;;;13.30;99.90;;;;;;5090505;28;20830;-80
2022/11/03 09:21:07;;;;;;;16.33;6.23;;;13.80;99.90;;;;;;5089851;28;20444;-81
2022/11/03 09:23:52;;;;;;;6.03;5.37;;;13.60;99.90;;;;;;5089435;28;20479;-81
2022/11/03 09:26:37;;;;;;;16.63;5.73;;;14.00;99.90;;;;;;5070443;28;21967;-81
2022/11/03 09:29:21;;;;;;;8.60;6.17;;;13.20;99.90;;;;;;5091733;28;20443;-82
2022/11/03 09:32:06;;;;;;;7.00;6.13;;;12.70;99.90;;;;;;5084892;28;20437;-81
2022/11/03 09:34:51;;;;;;;11.80;7.60;;;13.00;99.90;;;;;;5090170;28;20900;-82
2022/11/03 09:37:35;;;;;;;9.17;7.23;;;13.20;99.90;;;;;;5057008;28;20463;-81
2022/11/03 09:40:20;;;;;;;8.50;5.60;;;13.10;99.90;;;;;;5070392;28;20478;-80
2022/11/03 09:43:04;;;;;;;14.23;6.73;;;12.80;99.90;;;;;;5084803;28;20499;-79
2022/11/03 09:45:48;;;;;;;8.30;6.23;;;12.80;99.90;;;;;;5086606;28;20474;-81
2022/11/03 09:48:33;;;;;;;7.83;6.43;;;12.70;99.90;;;;;;5095413;28;20509;-81
2022/11/03 09:51:20;;;;;;;11.77;6.33;;;13.30;99.90;;;;;;5091023;28;20515;-81
2022/11/03 09:54:05;;;;;;;9.33;6.40;;;13.60;99.90;;;;;;5085356;28;20470;-82
2022/11/03 09:56:49;;;;;;;9.20;6.77;;;13.50;99.90;;;;;;5086466;28;20447;-80
2022/11/03 09:59:36;;;;;;;9.37;5.37;;;13.90;99.90;;;;;;5084954;28;20422;-81
2022/11/03 10:02:26;;;;;;;11.13;5.90;;;13.70;99.90;;;;;;5086668;28;20456;-82
2022/11/03 10:05:13;;;;;;;12.23;5.70;;;14.30;99.90;;;;;;5092946;28;20558;-81
2022/11/03 10:08:03;;;;;;;18.90;6.87;;;14.70;99.90;;;;;;5093185;28;20482;-81
2022/11/03 10:10:48;;;;;;;10.47;6.37;;;15.10;99.90;;;;;;5104474;28;20475;-82
2022/11/03 10:13:46;;;;;;;15.40;6.73;;;15.80;99.90;;;;;;5096462;28;20398;-81
2022/11/03 10:16:30;;;;;;;7.57;6.87;;;16.20;99.90;;;;;;5092458;28;20746;-81
2022/11/03 10:19:14;;;;;;;8.50;6.50;;;16.50;99.90;;;;;;5097362;28;20402;-81
2022/11/03 10:21:58;;;;;;;9.77;6.60;;;17.10;99.90;;;;;;5092851;28;20446;-80
2022/11/03 10:24:43;;;;;;;9.20;5.87;;;18.30;99.90;;;;;;5095303;28;20535;-79
2022/11/03 10:27:27;;;;;;;8.57;5.37;;;20.00;99.90;;;;;;5096248;28;20442;-80
2022/11/03 10:30:12;;;;;;;10.40;5.67;;;20.10;99.90;;;;;;5087391;28;20424;-80
2022/11/03 10:32:56;;;;;;;6.97;5.63;;;20.10;99.90;;;;;;5090653;28;20442;-80
2022/11/03 10:35:40;;;;;;;9.33;4.87;;;19.60;99.90;;;;;;5091314;28;20431;-79
2022/11/03 10:38:29;;;;;;;7.07;6.37;;;18.90;99.90;;;;;;5087275;28;20499;-80
2022/11/03 10:41:19;;;;;;;7.57;5.30;;;19.60;99.90;;;;;;5087721;28;20424;-81
2022/11/03 10:44:17;;;;;;;8.10;5.60;;;19.30;99.90;;;;;;5075989;28;20415;-80
2022/11/03 10:47:04;;;;;;;11.03;6.03;;;19.20;99.90;;;;;;5076360;28;20427;-79
2022/11/03 10:49:48;;;;;;;12.27;6.80;;;19.00;99.90;;;;;;5087044;28;20428;-79
2022/11/03 10:52:33;;;;;;;5.43;4.90;;;18.70;99.90;;;;;;5091640;28;20737;-81
2022/11/03 10:55:18;;;;;;;5.43;4.67;;;19.00;99.90;;;;;;5092731;28;21222;-80
2022/11/03 10:58:03;;;;;;;6.20;5.17;;;18.30;99.90;;;;;;5090055;28;21005;-81
2022/11/03 11:00:47;;;;;;;5.40;4.60;;;18.40;99.90;;;;;;5093891;28;20782;-81
2022/11/03 11:03:32;;;;;;;3.40;3.17;;;18.70;99.90;;;;;;5095466;28;20447;-80
2022/11/03 11:06:20;;;;;;;4.93;4.00;;;18.10;99.90;;;;;;5090305;28;20876;-80
2022/11/03 11:09:06;;;;;;;5.60;3.83;;;17.40;99.90;;;;;;5055248;28;21003;-79
2022/11/03 11:12:13;;;;;;;6.57;3.23;;;17.10;99.90;;;;;;5094289;28;20459;-81
2022/11/03 11:15:00;;;;;;;5.27;3.50;;;16.80;99.90;;;;;;5076939;28;20860;-81
2022/11/03 11:17:48;;;;;;;10.70;4.00;;;17.00;99.90;;;;;;5093515;28;20435;-82
2022/11/03 11:20:36;;;;;;;8.77;3.60;;;17.20;99.90;;;;;;5093720;28;21063;-82
2022/11/03 11:23:42;;;;;;;4.80;3.67;;;17.60;99.90;;;;;;5087526;28;20471;-81
2022/11/03 11:26:32;;;;;;;4.73;3.07;;;18.20;99.90;;;;;;5091545;28;20419;-80
2022/11/03 11:29:34;;;;;;;3.07;2.70;;;18.20;99.90;;;;;;5094748;28;20420;-81
2022/11/03 11:32:55;;;;;;;5.30;3.27;;;17.10;99.90;;;;;;5080383;28;20779;-80
2022/11/03 11:36:03;;;;;;;4.97;3.70;;;17.60;99.90;;;;;;5084603;28;20427;-83
2022/11/03 11:38:59;;;;;;;10.17;5.33;;;17.70;99.90;;;;;;5082727;28;20483;-81
2022/11/03 11:42:08;;;;;;;3.20;2.90;;;17.80;99.90;;;;;;5050784;28;20532;-82
2022/11/03 11:44:58;;;;;;;11.17;3.63;;;18.80;99.90;;;;;;5055655;28;20430;-82
2022/11/03 11:47:49;;;;;;;3.50;3.17;;;18.60;99.90;;;;;;5005334;28;20443;-82
2022/11/03 11:50:34;;;;;;;7.73;4.43;;;18.40;99.90;;;;;;4994089;28;20431;-82
2022/11/03 11:53:25;;;;;;;7.90;3.63;;;18.10;99.90;;;;;;4978471;28;20428;-81
2022/11/03 11:56:15;;;;;;;4.37;3.27;;;17.30;99.90;;;;;;4988783;28;20448;-81
2022/11/03 11:59:21;;;;;;;3.27;2.77;;;17.10;99.90;;;;;;4990385;28;20450;-80
2022/11/03 12:02:18;;;;;;;2.60;2.40;;;17.10;99.90;;;;;;4957814;28;20489;-82
2022/11/03 12:05:08;;;;;;;3.20;2.90;;;16.80;99.90;;;;;;4956114;28;20515;-80
2022/11/03 12:07:54;;;;;;;9.97;3.07;;;17.40;99.90;;;;;;4924261;28;20538;-80
2022/11/03 12:10:52;;;;;;;7.10;3.07;;;17.40;99.90;;;;;;4933968;29;20426;-79
2022/11/03 12:13:51;;;;;;;4.70;3.63;;;17.80;99.90;;;;;;4936386;29;20446;-79
2022/11/03 12:16:36;;;;;;;4.67;3.13;;;17.40;99.90;;;;;;4933758;29;20533;-81
2022/11/03 12:19:44;;;;;;;12.27;5.50;;;17.00;99.90;;;;;;4938281;29;20447;-80
2022/11/03 12:22:41;;;;;;;6.07;4.07;;;17.00;99.90;;;;;;4942836;29;20535;-80
2022/11/03 12:25:41;;;;;;;3.27;2.97;;;17.00;99.90;;;;;;4936088;29;20439;-81
2022/11/03 12:28:34;;;;;;;3.40;3.10;;;17.20;99.90;;;;;;4937202;29;20463;-80
2022/11/03 12:31:19;;;;;;;4.63;3.30;;;17.40;99.90;;;;;;4945432;28;20446;-81
2022/11/03 12:34:03;;;;;;;6.40;3.53;;;17.00;99.90;;;;;;4974997;28;20461;-81
2022/11/03 12:36:47;;;;;;;3.63;3.20;;;17.70;99.90;;;;;;4993686;28;20447;-80
2022/11/03 12:39:33;;;;;;;7.50;3.20;;;17.30;99.90;;;;;;4993902;28;20461;-82
2022/11/03 12:42:18;;;;;;;5.97;2.80;;;17.10;99.90;;;;;;5026153;28;20461;-80
2022/11/03 12:45:03;;;;;;;10.63;3.40;;;16.70;99.90;;;;;;5049295;28;20433;-81
2022/11/03 12:47:48;;;;;;;7.53;3.97;;;16.30;99.90;;;;;;5044875;28;20445;-81
2022/11/03 12:50:32;;;;;;;4.93;4.43;;;16.30;99.90;;;;;;5046567;28;20425;-79
2022/11/03 12:53:16;;;;;;;6.30;3.10;;;16.00;99.90;;;;;;5046430;28;20606;-80
2022/11/03 12:56:01;;;;;;;3.83;3.07;;;15.90;99.90;;;;;;5049671;28;20485;-80
2022/11/03 12:58:45;;;;;;;4.83;3.37;;;15.80;99.90;;;;;;5056776;28;20545;-79
2022/11/03 13:01:31;;;;;;;5.50;3.30;;;16.00;99.90;;;;;;5076832;28;20982;-80
2022/11/03 13:04:16;;;;;;;8.07;4.53;;;16.00;99.90;;;;;;5091384;28;20420;-80
2022/11/03 13:07:00;;;;;;;4.53;4.10;;;16.40;99.90;;;;;;5087444;28;20831;-81
2022/11/03 13:09:45;;;;;;;7.07;3.30;;;16.40;99.90;;;;;;5092035;28;20424;-81
2022/11/03 13:12:30;;;;;;;5.40;3.10;;;16.40;99.90;;;;;;5090310;28;20435;-80
2022/11/03 13:15:15;;;;;;;10.00;3.20;;;16.40;99.90;;;;;;5092100;28;20490;-80
2022/11/03 13:18:08;;;;;;;4.63;3.47;;;16.30;99.90;;;;;;5062565;28;20493;-80
2022/11/03 13:20:52;;;;;;;5.20;3.10;;;16.20;99.90;;;;;;5070820;28;20527;-81
2022/11/03 13:23:36;;;;;;;5.30;3.60;;;16.30;99.90;;;;;;5066121;28;20479;-80
2022/11/03 13:26:21;;;;;;;5.07;3.57;;;16.30;99.90;;;;;;5067123;28;20907;-80
2022/11/03 13:29:05;;;;;;;4.83;3.30;;;16.00;99.90;;;;;;5075087;28;20545;-80
2022/11/03 13:31:49;;;;;;;4.20;3.13;;;16.00;99.90;;;;;;5052223;28;20516;-81
2022/11/03 13:34:34;;;;;;;5.80;2.40;;;15.70;99.90;;;;;;5066657;28;20425;-80
2022/11/03 13:37:18;;;;;;;3.33;2.50;;;15.60;99.90;;;;;;5062190;28;20464;-80
2022/11/03 13:40:03;;;;;;;6.60;2.87;;;15.40;99.90;;;;;;5056370;28;20427;-79
2022/11/03 13:42:50;;;;;;;2.93;2.73;;;15.40;99.90;;;;;;5065562;28;20884;-80
2022/11/03 13:45:36;;;;;;;3.17;2.97;;;15.40;99.90;;;;;;5053555;28;20468;-80
2022/11/03 13:48:20;;;;;;;6.03;3.37;;;15.50;99.90;;;;;;5071714;28;20439;-80
2022/11/03 13:51:05;;;;;;;3.57;3.20;;;15.50;99.90;;;;;;5050612;28;20429;-80
2022/11/03 13:53:49;;;;;;;3.17;2.90;;;15.50;99.90;;;;;;5067163;28;20461;-81
2022/11/03 13:56:34;;;;;;;3.83;3.47;;;15.60;99.90;;;;;;5080676;28;20576;-80
2022/11/03 13:59:18;;;;;;;3.00;2.70;;;15.60;99.90;;;;;;5074483;28;20435;-81
2022/11/03 14:02:04;;;;;;;12.60;3.30;;;15.60;99.90;;;;;;5085056;28;20535;-81
2022/11/03 14:04:49;;;;;;;10.93;2.93;;;15.50;99.90;;;;;;5092320;28;20416;-78
2022/11/03 14:07:33;;;;;;;3.23;2.83;;;15.30;99.90;;;;;;5091215;28;21347;-81
2022/11/03 14:10:17;;;;;;;4.27;2.57;;;15.40;99.90;;;;;;5075129;28;21030;-80
2022/11/03 14:13:01;;;;;;;4.63;3.60;;;15.30;99.90;;;;;;5074883;28;20451;-81
2022/11/03 14:15:45;;;;;;;8.70;3.93;;;15.20;99.90;;;;;;5090756;28;20434;-79
2022/11/03 14:18:29;;;;;;;3.37;3.07;;;15.20;99.90;;;;;;5087838;28;20426;-79
2022/11/03 14:21:13;;;;;;;7.70;3.73;;;15.10;99.90;;;;;;5087291;28;20435;-80
2022/11/03 14:23:58;;;;;;;3.60;3.30;;;15.00;99.90;;;;;;5080558;28;20411;-79
2022/11/03 14:26:42;;;;;;;7.43;2.90;;;15.00;99.90;;;;;;5090235;28;20993;-79
2022/11/03 14:29:26;;;;;;;7.70;3.00;;;15.00;99.90;;;;;;5089767;28;20461;-79
2022/11/03 14:32:11;;;;;;;3.00;2.80;;;14.90;99.90;;;;;;5088394;28;20477;-80
2022/11/03 14:34:55;;;;;;;4.57;3.33;;;14.90;99.90;;;;;;5070709;28;20426;-80
2022/11/03 14:37:39;;;;;;;3.80;3.47;;;14.90;99.90;;;;;;5090969;28;20574;-80
2022/11/03 14:43:25;;;;;;;3.33;2.83;;;14.80;99.90;;;;;;5089086;28;20546;-79
2022/11/03 14:46:10;;;;;;;5.83;3.37;;;14.80;99.90;;;;;;5076926;28;20963;-79
2022/11/03 14:49:20;;;;;;;4.53;3.57;;;14.70;99.90;;;;;;5101508;28;20440;-79
2022/11/03 14:52:07;;;;;;;7.20;3.30;;;14.70;99.90;;;;;;5075149;28;20447;-79
2022/11/03 14:54:52;;;;;;;7.37;3.23;;;14.60;99.90;;;;;;5028963;28;20457;-79